createdAt,value
2019-02-26T00:01:18.546Z,4.60
2019-02-26T00:03:52.524Z,6.03
2019-02-26T00:06:22.775Z,5.70
2019-02-26T00:08:53.263Z,5.17
2019-02-26T00:11:24.361Z,5.33
2019-02-26T00:13:54.413Z,5.50
2019-02-26T00:16:22.675Z,5.23
2019-02-26T00:18:51.163Z,8.77
2019-02-26T00:21:20.482Z,6.80
2019-02-26T00:23:51.437Z,9.37
2019-02-26T00:26:20.688Z,6.13
2019-02-26T00:28:50.123Z,7.00
2019-02-26T00:31:39.395Z,5.50
2019-02-26T00:34:08.405Z,7.17
2019-02-26T00:36:38.233Z,6.70
2019-02-26T00:39:07.344Z,10.00
2019-02-26T00:41:35.905Z,6.23
2019-02-26T00:44:06.414Z,5.47
2019-02-26T00:46:35.239Z,6.00
2019-02-26T00:49:05.763Z,5.80
2019-02-26T00:51:34.922Z,5.47
2019-02-26T00:54:04.139Z,5.57
2019-02-26T00:56:34.001Z,11.33
2019-02-26T00:59:02.975Z,5.07
2019-02-26T01:01:31.422Z,6.47
2019-02-26T01:03:59.864Z,6.10
2019-02-26T01:06:28.995Z,5.40
2019-02-26T01:08:58.986Z,5.10
2019-02-26T01:11:30.233Z,6.40
2019-02-26T01:13:59.864Z,6.93
2019-02-26T01:16:28.387Z,5.47
2019-02-26T01:18:56.816Z,5.90
2019-02-26T01:21:28.470Z,6.20
2019-02-26T01:23:57.116Z,6.73
2019-02-26T01:26:27.812Z,5.90
2019-02-26T01:28:58.468Z,5.33
2019-02-26T01:31:28.752Z,7.50
2019-02-26T01:33:57.414Z,5.10
2019-02-26T01:36:25.996Z,5.37
2019-02-26T01:38:54.441Z,4.60
2019-02-26T01:41:24.980Z,7.40
2019-02-26T01:43:53.104Z,6.00
2019-02-26T01:46:21.554Z,5.23
2019-02-26T01:48:50.007Z,6.70
2019-02-26T01:51:19.354Z,6.10
2019-02-26T01:53:49.810Z,6.37
2019-02-26T01:56:19.955Z,6.27
2019-02-26T01:58:56.313Z,7.50
2019-02-26T02:01:42.014Z,5.10
2019-02-26T02:04:11.076Z,5.67
2019-02-26T02:06:41.343Z,4.93
2019-02-26T02:09:13.440Z,4.93
2019-02-26T02:11:40.774Z,4.77
2019-02-26T02:14:10.442Z,4.77
2019-02-26T02:16:39.543Z,6.90
2019-02-26T02:19:07.979Z,9.00
2019-02-26T02:21:37.377Z,4.70
2019-02-26T02:24:10.715Z,5.27
2019-02-26T02:26:36.057Z,5.13
2019-02-26T02:29:04.623Z,7.90
2019-02-26T02:31:34.879Z,10.17
2019-02-26T02:34:03.427Z,4.57
2019-02-26T02:36:33.415Z,4.87
2019-02-26T02:39:10.342Z,5.50
2019-02-26T02:41:55.072Z,9.13
2019-02-26T02:44:25.591Z,8.23
2019-02-26T02:46:54.195Z,4.40
2019-02-26T02:49:38.907Z,4.70
2019-02-26T02:52:07.222Z,8.23
2019-02-26T02:54:35.265Z,5.97
2019-02-26T02:57:05.384Z,5.30
2019-02-26T02:59:36.761Z,5.33
2019-02-26T03:02:04.281Z,5.70
2019-02-26T03:04:34.674Z,5.40
2019-02-26T03:07:03.216Z,4.93
2019-02-26T03:09:34.388Z,5.80
2019-02-26T03:12:01.941Z,5.80
2019-02-26T03:14:33.150Z,5.03
2019-02-26T03:17:00.563Z,6.30
2019-02-26T03:19:29.632Z,5.13
2019-02-26T03:21:59.235Z,5.17
2019-02-26T03:24:28.880Z,5.83
2019-02-26T03:26:57.913Z,5.10
2019-02-26T03:29:26.371Z,6.20
2019-02-26T03:31:55.586Z,4.60
2019-02-26T03:34:25.436Z,7.60
2019-02-26T03:36:54.447Z,4.50
2019-02-26T03:39:22.897Z,6.53
2019-02-26T03:41:53.447Z,5.30
2019-02-26T03:44:40.838Z,5.77
2019-02-26T03:47:09.284Z,5.90
2019-02-26T03:49:41.709Z,6.87
2019-02-26T03:52:07.904Z,5.80
2019-02-26T03:54:37.844Z,4.80
2019-02-26T03:57:06.507Z,5.20
2019-02-26T03:59:35.039Z,4.90
2019-02-26T04:02:24.007Z,5.27
2019-02-26T04:04:54.258Z,5.60
2019-02-26T04:07:42.259Z,5.50
2019-02-26T04:10:12.131Z,5.00
2019-02-26T04:12:42.261Z,5.50
2019-02-26T04:15:14.375Z,4.70
2019-02-26T04:17:42.804Z,6.27
2019-02-26T04:20:12.786Z,6.73
2019-02-26T04:22:43.168Z,5.57
2019-02-26T04:25:22.286Z,5.87
2019-02-26T04:28:08.089Z,6.53
2019-02-26T04:31:02.574Z,5.23
2019-02-26T04:33:55.258Z,5.47
2019-02-26T04:36:28.254Z,8.50
2019-02-26T04:39:25.430Z,5.67
2019-02-26T04:42:17.754Z,5.27
2019-02-26T04:45:09.450Z,6.27
2019-02-26T04:47:55.479Z,6.60
2019-02-26T04:50:28.601Z,6.37
2019-02-26T04:52:55.479Z,5.93
2019-02-26T04:55:23.706Z,6.03
2019-02-26T04:57:54.195Z,7.77
2019-02-26T05:00:23.713Z,6.70
2019-02-26T05:02:52.944Z,7.10
2019-02-26T05:05:22.426Z,5.13
2019-02-26T05:07:51.624Z,5.57
2019-02-26T05:10:20.941Z,7.10
2019-02-26T05:12:53.248Z,6.27
2019-02-26T05:15:23.088Z,6.60
2019-02-26T05:17:50.587Z,6.63
2019-02-26T05:20:19.136Z,7.10
2019-02-26T05:22:47.644Z,6.80
2019-02-26T05:25:19.189Z,11.90
2019-02-26T05:27:48.663Z,13.80
2019-02-26T05:30:19.333Z,17.27
2019-02-26T05:32:46.623Z,13.13
2019-02-26T05:35:17.329Z,9.80
2019-02-26T05:37:45.226Z,6.77
2019-02-26T05:40:18.342Z,7.70
2019-02-26T05:42:43.967Z,8.00
2019-02-26T05:45:12.489Z,9.70
2019-02-26T05:47:43.146Z,7.87
2019-02-26T05:50:16.109Z,9.20
2019-02-26T05:52:42.551Z,12.43
2019-02-26T05:55:13.905Z,8.80
2019-02-26T05:57:41.349Z,7.90
2019-02-26T06:00:13.501Z,11.53
2019-02-26T06:02:42.630Z,6.50
2019-02-26T06:05:11.829Z,10.20
2019-02-26T06:07:41.510Z,10.60
2019-02-26T06:10:10.178Z,6.47
2019-02-26T06:12:40.871Z,10.43
2019-02-26T06:15:09.104Z,8.00
2019-02-26T06:17:40.516Z,8.47
2019-02-26T06:20:13.621Z,8.73
2019-02-26T06:22:42.060Z,10.07
2019-02-26T06:25:18.370Z,6.70
2019-02-26T06:27:40.814Z,9.50
2019-02-26T06:30:13.676Z,10.70
2019-02-26T06:32:44.580Z,13.90
2019-02-26T06:35:16.348Z,11.00
2019-02-26T06:38:04.600Z,16.37
2019-02-26T06:40:36.687Z,13.33
2019-02-26T06:43:04.614Z,16.40
2019-02-26T06:45:33.064Z,15.40
2019-02-26T06:48:01.528Z,16.53
2019-02-26T06:50:31.675Z,13.60
2019-02-26T06:53:00.154Z,15.70
2019-02-26T06:55:28.697Z,12.73
2019-02-26T06:58:03.004Z,9.70
2019-02-26T07:00:31.454Z,5.53
2019-02-26T07:03:00.162Z,9.57
2019-02-26T07:05:30.077Z,11.23
2019-02-26T07:07:59.619Z,8.90
2019-02-26T07:10:31.162Z,7.80
2019-02-26T07:12:58.872Z,6.47
2019-02-26T07:15:29.376Z,12.30
2019-02-26T07:18:02.246Z,7.70
2019-02-26T07:20:34.073Z,7.13
2019-02-26T07:22:59.220Z,9.50
2019-02-26T07:25:27.655Z,12.90
2019-02-26T07:28:02.852Z,13.17
2019-02-26T07:30:32.616Z,9.23
2019-02-26T07:33:03.026Z,15.00
2019-02-26T07:35:32.806Z,17.23
2019-02-26T07:38:22.950Z,21.83
2019-02-26T07:40:51.369Z,18.03
2019-02-26T07:43:20.765Z,12.83
2019-02-26T07:45:51.348Z,8.90
2019-02-26T07:48:21.268Z,10.47
2019-02-26T07:50:50.790Z,10.17
2019-02-26T07:53:21.961Z,7.63
2019-02-26T07:55:49.583Z,12.73
2019-02-26T07:58:18.062Z,31.00
2019-02-26T08:00:49.576Z,11.20
2019-02-26T08:03:17.417Z,9.80
2019-02-26T08:05:46.898Z,6.63
2019-02-26T08:08:17.076Z,9.27
2019-02-26T08:10:48.398Z,6.50
2019-02-26T08:13:15.754Z,7.10
2019-02-26T08:15:44.199Z,5.13
2019-02-26T08:18:12.645Z,7.40
2019-02-26T08:20:41.103Z,9.90
2019-02-26T08:23:09.540Z,9.43
2019-02-26T08:25:38.981Z,9.60
2019-02-26T08:28:07.491Z,14.57
2019-02-26T08:30:57.212Z,6.23
2019-02-26T08:33:25.494Z,8.33
2019-02-26T08:35:56.080Z,5.57
2019-02-26T08:38:24.201Z,7.73
2019-02-26T08:40:54.657Z,6.33
2019-02-26T08:43:23.103Z,5.33
2019-02-26T08:45:52.613Z,9.03
2019-02-26T08:48:22.279Z,10.73
2019-02-26T08:50:51.295Z,5.53
2019-02-26T08:53:32.280Z,7.90
2019-02-26T08:56:03.970Z,13.60
2019-02-26T08:58:31.907Z,9.57
2019-02-26T09:01:00.364Z,6.80
2019-02-26T09:03:28.804Z,12.20
2019-02-26T09:06:16.609Z,10.53
2019-02-26T09:08:45.048Z,4.53
2019-02-26T09:11:14.242Z,6.57
2019-02-26T09:13:43.864Z,5.60
2019-02-26T09:16:12.604Z,5.47
2019-02-26T09:18:47.840Z,5.73
2019-02-26T09:21:18.108Z,8.57
2019-02-26T09:23:49.507Z,7.80
2019-02-26T09:26:27.535Z,8.80
2019-02-26T09:29:05.504Z,14.70
2019-02-26T09:31:33.960Z,11.20
2019-02-26T09:34:02.395Z,8.77
2019-02-26T09:36:30.851Z,18.00
2019-02-26T09:38:59.306Z,6.13
2019-02-26T09:41:27.820Z,8.53
2019-02-26T09:43:56.416Z,6.20
2019-02-26T09:46:24.852Z,5.43
2019-02-26T09:48:53.304Z,5.37
2019-02-26T09:51:21.735Z,8.60
2019-02-26T09:53:53.862Z,10.13
2019-02-26T09:56:21.398Z,6.83
2019-02-26T09:58:50.835Z,7.53
2019-02-26T10:01:19.477Z,4.97
2019-02-26T10:03:48.924Z,10.80
2019-02-26T10:06:37.963Z,6.30
2019-02-26T10:09:10.319Z,10.33
2019-02-26T10:11:39.193Z,6.87
2019-02-26T10:14:07.955Z,6.70
2019-02-26T10:16:37.501Z,9.57
2019-02-26T10:19:07.918Z,6.07
2019-02-26T10:21:37.524Z,5.80
2019-02-26T10:24:07.423Z,9.63
2019-02-26T10:26:36.665Z,7.77
2019-02-26T10:29:08.163Z,6.67
2019-02-26T10:31:40.369Z,8.93
2019-02-26T10:34:10.066Z,6.33
2019-02-26T10:36:40.756Z,13.10
2019-02-26T10:39:08.574Z,10.83
2019-02-26T10:41:39.340Z,6.30
2019-02-26T10:44:07.439Z,7.03
2019-02-26T10:46:37.130Z,7.93
2019-02-26T10:49:06.315Z,6.53
2019-02-26T10:51:34.804Z,8.17
2019-02-26T10:54:17.951Z,8.60
2019-02-26T10:56:45.545Z,8.57
2019-02-26T10:59:15.779Z,9.63
2019-02-26T11:02:03.576Z,13.93
2019-02-26T11:04:34.897Z,12.73
2019-02-26T11:07:04.803Z,7.80
2019-02-26T11:09:32.477Z,7.03
2019-02-26T11:12:22.706Z,19.20
2019-02-26T11:14:50.453Z,9.07
2019-02-26T11:17:20.854Z,10.47
2019-02-26T11:19:49.151Z,11.80
2019-02-26T11:22:20.159Z,14.83
2019-02-26T11:24:56.127Z,10.90
2019-02-26T11:27:24.766Z,6.17
2019-02-26T11:29:54.637Z,14.40
2019-02-26T11:32:23.479Z,7.70
2019-02-26T11:34:59.766Z,10.60
2019-02-26T11:37:29.621Z,8.67
2019-02-26T11:39:59.953Z,6.53
2019-02-26T11:42:28.765Z,5.67
2019-02-26T11:44:57.417Z,10.00
2019-02-26T11:47:25.859Z,7.33
2019-02-26T11:49:54.320Z,8.60
2019-02-26T11:52:22.753Z,8.17
2019-02-26T11:54:51.211Z,6.90
2019-02-26T11:57:19.647Z,12.43
2019-02-26T11:59:48.102Z,9.40
2019-02-26T12:02:25.273Z,6.70
2019-02-26T12:04:46.705Z,7.77
2019-02-26T12:07:15.232Z,6.37
2019-02-26T12:09:43.684Z,6.83
2019-02-26T12:12:12.139Z,6.07
2019-02-26T12:14:43.208Z,6.77
2019-02-26T12:17:10.840Z,7.80
2019-02-26T12:19:39.296Z,9.53
2019-02-26T12:22:07.755Z,6.83
2019-02-26T12:24:36.284Z,5.27
2019-02-26T12:27:07.077Z,9.10
2019-02-26T12:29:35.016Z,5.97
2019-02-26T12:32:04.710Z,6.07
2019-02-26T12:34:35.170Z,8.87
2019-02-26T12:37:11.686Z,10.10
2019-02-26T12:39:39.775Z,7.57
2019-02-26T12:42:10.665Z,4.50
2019-02-26T12:44:42.373Z,4.83
2019-02-26T12:47:27.979Z,3.70
2019-02-26T12:49:58.558Z,4.70
2019-02-26T12:52:27.678Z,3.77
2019-02-26T12:54:57.713Z,5.73
2019-02-26T12:57:29.216Z,4.40
2019-02-26T12:59:57.304Z,2.93
2019-02-26T13:02:25.943Z,4.30
2019-02-26T13:04:54.460Z,6.30
2019-02-26T13:07:22.916Z,6.67
2019-02-26T13:09:54.975Z,8.37
2019-02-26T13:12:24.178Z,4.23
2019-02-26T13:14:54.597Z,4.37
2019-02-26T13:17:26.163Z,4.70
2019-02-26T13:19:54.707Z,4.70
2019-02-26T13:22:22.343Z,8.47
2019-02-26T13:24:50.788Z,4.97
2019-02-26T13:27:19.263Z,6.37
2019-02-26T13:29:54.543Z,10.50
2019-02-26T13:32:21.029Z,9.33
2019-02-26T13:34:48.087Z,5.57
2019-02-26T13:37:16.615Z,6.53
2019-02-26T13:39:45.724Z,5.03
2019-02-26T13:42:19.130Z,5.60
2019-02-26T13:44:45.211Z,7.10
2019-02-26T13:47:13.669Z,5.90
2019-02-26T13:49:42.134Z,5.80
2019-02-26T13:52:10.659Z,6.90
2019-02-26T13:54:42.775Z,6.30
2019-02-26T13:57:11.229Z,12.13
2019-02-26T13:59:39.741Z,6.97
2019-02-26T14:02:08.436Z,8.70
2019-02-26T14:04:36.871Z,5.37
2019-02-26T14:07:05.481Z,14.70
2019-02-26T14:09:33.981Z,6.80
2019-02-26T14:12:02.504Z,5.37
2019-02-26T14:14:31.325Z,13.93
2019-02-26T14:16:59.800Z,10.67
2019-02-26T14:19:28.309Z,8.63
2019-02-26T14:21:56.776Z,8.97
2019-02-26T14:24:25.232Z,9.63
2019-02-26T14:26:53.965Z,8.40
2019-02-26T14:29:22.406Z,10.70
2019-02-26T14:31:50.899Z,10.00
2019-02-26T14:34:19.332Z,6.30
2019-02-26T14:36:47.772Z,5.67
2019-02-26T14:39:16.315Z,12.43
2019-02-26T14:41:45.735Z,7.07
2019-02-26T14:44:14.214Z,5.30
2019-02-26T14:46:42.659Z,5.13
2019-02-26T14:49:12.650Z,9.23
2019-02-26T14:51:41.090Z,5.77
2019-02-26T14:54:09.544Z,6.43
2019-02-26T14:56:37.977Z,5.47
2019-02-26T14:59:06.425Z,9.27
2019-02-26T15:01:34.867Z,8.60
2019-02-26T15:04:03.352Z,7.07
2019-02-26T15:06:39.557Z,9.83
2019-02-26T15:09:15.849Z,5.60
2019-02-26T15:11:44.291Z,6.20
2019-02-26T15:14:12.884Z,5.10
2019-02-26T15:17:00.668Z,6.03
2019-02-26T15:19:29.118Z,6.37
2019-02-26T15:21:57.749Z,8.60
2019-02-26T15:24:26.301Z,6.80
2019-02-26T15:26:54.814Z,15.23
2019-02-26T15:29:23.276Z,14.00
2019-02-26T15:31:51.784Z,12.73
2019-02-26T15:34:20.435Z,9.40
2019-02-26T15:36:48.940Z,6.63
2019-02-26T15:39:17.420Z,6.37
2019-02-26T15:41:48.186Z,7.23
2019-02-26T15:44:16.071Z,9.43
2019-02-26T15:46:44.523Z,7.53
2019-02-26T15:49:12.978Z,9.23
2019-02-26T15:51:41.452Z,6.90
2019-02-26T15:54:09.952Z,8.07
2019-02-26T15:56:38.476Z,9.57
2019-02-26T15:59:07.059Z,6.90
2019-02-26T16:01:35.511Z,7.47
2019-02-26T16:04:04.028Z,10.67
2019-02-26T16:06:32.486Z,10.77
2019-02-26T16:09:00.923Z,9.33
2019-02-26T16:11:29.660Z,9.23
2019-02-26T16:13:59.836Z,14.00
2019-02-26T16:16:28.464Z,11.60
2019-02-26T16:19:00.314Z,7.50
2019-02-26T16:21:27.059Z,9.50
2019-02-26T16:23:55.524Z,12.73
2019-02-26T16:26:23.950Z,6.63
2019-02-26T16:29:13.283Z,9.23
2019-02-26T16:31:41.744Z,9.17
2019-02-26T16:34:11.439Z,7.73
2019-02-26T16:36:40.020Z,9.00
2019-02-26T16:39:08.903Z,7.70
2019-02-26T16:41:38.326Z,11.70
2019-02-26T16:44:07.669Z,11.93
2019-02-26T16:46:36.200Z,10.37
2019-02-26T16:49:04.903Z,9.03
2019-02-26T16:51:33.343Z,7.43
2019-02-26T16:54:01.795Z,9.40
2019-02-26T16:56:30.247Z,10.93
2019-02-26T16:58:58.776Z,15.73
2019-02-26T17:01:33.496Z,13.70
2019-02-26T17:04:01.947Z,8.63
2019-02-26T17:06:30.379Z,10.17
2019-02-26T17:08:58.978Z,7.50
2019-02-26T17:11:27.412Z,8.23
2019-02-26T17:13:55.964Z,13.73
2019-02-26T17:16:24.477Z,9.50
2019-02-26T17:18:53.424Z,16.80
2019-02-26T17:21:21.876Z,21.13
2019-02-26T17:23:50.476Z,11.23
2019-02-26T17:26:19.203Z,8.73
2019-02-26T17:28:47.707Z,7.90
2019-02-26T17:31:16.167Z,13.40
2019-02-26T17:33:44.770Z,8.67
2019-02-26T17:36:14.862Z,13.57
2019-02-26T17:38:43.323Z,11.10
2019-02-26T17:41:12.297Z,16.00
2019-02-26T17:43:41.300Z,11.67
2019-02-26T17:46:10.317Z,22.13
2019-02-26T17:48:43.463Z,14.37
2019-02-26T17:51:09.829Z,16.40
2019-02-26T17:53:39.289Z,13.03
2019-02-26T17:56:07.871Z,11.30
2019-02-26T17:58:36.664Z,14.40
2019-02-26T18:01:05.532Z,13.03
2019-02-26T18:03:34.124Z,12.60
2019-02-26T18:06:02.652Z,16.53
2019-02-26T18:08:31.197Z,14.47
2019-02-26T18:10:59.739Z,13.63
2019-02-26T18:13:28.259Z,11.70
2019-02-26T18:15:57.279Z,13.90
2019-02-26T18:18:26.879Z,15.90
2019-02-26T18:20:55.401Z,13.33
2019-02-26T18:23:23.857Z,12.47
2019-02-26T18:25:52.380Z,10.83
2019-02-26T18:28:20.852Z,11.83
2019-02-26T18:30:49.283Z,12.30
2019-02-26T18:33:17.759Z,13.83
2019-02-26T18:35:47.203Z,10.93
2019-02-26T18:38:17.366Z,15.03
2019-02-26T18:40:46.072Z,9.83
2019-02-26T18:43:14.988Z,11.50
2019-02-26T18:45:43.531Z,20.00
2019-02-26T18:48:12.634Z,11.70
2019-02-26T18:50:42.254Z,20.13
2019-02-26T18:53:11.759Z,11.90
2019-02-26T18:55:52.871Z,13.93
2019-02-26T18:58:21.389Z,10.40
2019-02-26T19:00:49.864Z,17.67
2019-02-26T19:03:18.459Z,17.40
2019-02-26T19:05:46.915Z,13.70
2019-02-26T19:08:15.520Z,29.17
2019-02-26T19:10:43.977Z,14.67
2019-02-26T19:13:13.518Z,12.83
2019-02-26T19:15:42.023Z,16.10
2019-02-26T19:18:11.041Z,17.47
2019-02-26T19:20:40.458Z,19.70
2019-02-26T19:23:08.969Z,14.63
2019-02-26T19:25:41.470Z,13.20
2019-02-26T19:28:07.611Z,20.70
2019-02-26T19:30:36.967Z,18.20
2019-02-26T19:33:06.285Z,18.43
2019-02-26T19:35:40.048Z,17.73
2019-02-26T19:38:05.585Z,21.13
2019-02-26T19:40:48.988Z,22.97
2019-02-26T19:43:17.512Z,28.67
2019-02-26T19:45:46.004Z,32.87
2019-02-26T19:48:14.458Z,27.20
2019-02-26T19:50:45.463Z,26.73
2019-02-26T19:53:13.103Z,29.43
2019-02-26T19:55:43.776Z,28.60
2019-02-26T19:58:12.236Z,29.90
2019-02-26T20:00:40.771Z,27.03
2019-02-26T20:03:09.286Z,28.37
2019-02-26T20:05:37.808Z,29.43
2019-02-26T20:08:06.419Z,26.83
2019-02-26T20:10:34.952Z,31.20
2019-02-26T20:13:04.451Z,29.67
2019-02-26T20:15:33.255Z,24.30
2019-02-26T20:18:04.172Z,18.67
2019-02-26T20:20:40.552Z,26.93
2019-02-26T20:23:05.226Z,23.63
2019-02-26T20:25:33.148Z,23.40
2019-02-26T20:28:05.274Z,26.93
2019-02-26T20:30:31.939Z,26.77
2019-02-26T20:33:01.518Z,26.23
2019-02-26T20:35:30.576Z,25.17
2019-02-26T20:37:59.364Z,17.87
2019-02-26T20:40:28.203Z,18.70
2019-02-26T20:42:56.648Z,20.33
2019-02-26T20:45:25.184Z,17.67
2019-02-26T20:47:53.645Z,14.47
2019-02-26T20:50:23.900Z,15.50
2019-02-26T20:52:52.268Z,15.27
2019-02-26T20:55:28.494Z,15.47
2019-02-26T20:57:57.003Z,14.07
2019-02-26T21:00:26.228Z,18.10
2019-02-26T21:02:54.875Z,16.97
2019-02-26T21:05:25.080Z,14.47
2019-02-26T21:07:58.042Z,13.50
2019-02-26T21:10:24.000Z,17.63
2019-02-26T21:12:52.544Z,15.50
2019-02-26T21:15:23.592Z,17.60
2019-02-26T21:17:52.199Z,20.00
2019-02-26T21:20:20.704Z,20.73
2019-02-26T21:22:49.304Z,42.87
2019-02-26T21:25:17.859Z,21.57
2019-02-26T21:27:46.387Z,25.20
2019-02-26T21:30:34.179Z,26.23
2019-02-26T21:33:02.637Z,20.20
2019-02-26T21:35:31.148Z,15.90
2019-02-26T21:37:59.612Z,10.03
2019-02-26T21:40:28.125Z,11.87
2019-02-26T21:42:56.585Z,11.83
2019-02-26T21:45:25.028Z,9.90
2019-02-26T21:47:53.540Z,8.57
2019-02-26T21:50:23.703Z,9.60
2019-02-26T21:52:59.881Z,8.77
2019-02-26T21:55:22.424Z,8.13
2019-02-26T21:57:54.555Z,10.20
2019-02-26T22:00:25.104Z,7.83
2019-02-26T22:02:53.639Z,14.70
2019-02-26T22:05:22.208Z,12.40
2019-02-26T22:07:52.366Z,6.40
2019-02-26T22:10:21.971Z,6.17
2019-02-26T22:12:50.648Z,9.00
2019-02-26T22:15:19.244Z,7.20
2019-02-26T22:17:47.748Z,9.27
2019-02-26T22:20:26.708Z,9.70
2019-02-26T22:22:48.310Z,5.03
2019-02-26T22:25:17.548Z,6.27
2019-02-26T22:27:46.292Z,6.37
2019-02-26T22:30:21.458Z,6.00
2019-02-26T22:32:47.290Z,8.37
2019-02-26T22:35:15.915Z,6.10
2019-02-26T22:37:44.527Z,8.40
2019-02-26T22:40:14.115Z,5.87
2019-02-26T22:42:42.560Z,7.43
2019-02-26T22:45:15.609Z,8.83
2019-02-26T22:47:45.171Z,9.13
2019-02-26T22:50:14.956Z,13.27
2019-02-26T22:52:43.476Z,8.33
2019-02-26T22:55:17.307Z,9.50
2019-02-26T22:57:46.912Z,11.13
2019-02-26T23:00:48.257Z,7.80
2019-02-26T23:03:14.105Z,9.37
2019-02-26T23:05:42.706Z,6.70
2019-02-26T23:08:11.955Z,10.77
2019-02-26T23:10:41.140Z,9.40
2019-02-26T23:13:09.679Z,9.87
2019-02-26T23:15:38.350Z,7.60
2019-02-26T23:18:07.631Z,7.43
2019-02-26T23:20:36.669Z,7.03
2019-02-26T23:23:05.186Z,5.90
2019-02-26T23:25:35.965Z,9.83
2019-02-26T23:28:04.668Z,6.50
2019-02-26T23:30:33.119Z,7.03
2019-02-26T23:33:01.756Z,9.93
2019-02-26T23:35:30.262Z,10.20
2019-02-26T23:37:59.972Z,6.97
2019-02-26T23:40:28.489Z,10.80
2019-02-26T23:42:57.185Z,6.07
2019-02-26T23:45:25.628Z,7.43
2019-02-26T23:47:54.064Z,8.87
2019-02-26T23:50:22.697Z,8.67
2019-02-26T23:52:51.192Z,6.67
2019-02-26T23:55:19.713Z,8.00
2019-02-26T23:57:48.179Z,6.50
